Wednesday, November 22, 2017, 4:42 PM GMT
Back to Local

CWSA, Sable Island, N. S.

Location: , , Canada Lat: 43.933
Local Time: 4:42 PM GMT (16:42 GMT) Lon: -60.017
Time Zone: GMT Elev: 13 ft

Show me the last for .
Show Decoded

2017-11-22 16:00 METAR CWSA 221600Z AUTO 20010KT 4SM HZ CLR 13/10 A3016 RMK TS/LTNG TEMPO UNAVBL
                 SLP215 =
2017-11-22 15:00 METAR CWSA 221500Z AUTO 20012KT 4SM BR CLR 12/10 A3018 RMK TS/LTNG TEMPO UNAVBL
                 SLP221 =
2017-11-22 14:00 METAR CWSA 221400Z AUTO 19009KT 3SM BR CLR 11/09 A3019 RMK TS/LTNG TEMPO UNAVBL
                 SLP225 =
2017-11-22 13:00 METAR CWSA 221300Z AUTO 19010KT 3SM BR CLR 11/10 A3019 RMK TS/LTNG TEMPO UNAVBL
                 SLP226 =
2017-11-22 12:00 METAR CWSA 221200Z AUTO 21015KT 4SM BR CLR 11/09 A3019 RMK TS/LTNG TEMPO UNAVBL
                 SLP226 =
2017-11-22 11:00 METAR CWSA 221100Z AUTO 20010KT 4SM BR CLR 10/08 A3020 RMK TS/LTNG TEMPO UNAVBL
                 SLP227 =
2017-11-22 10:00 METAR CWSA 221000Z AUTO 19010KT 3SM BR FEW038 10/08 A3019 RMK TS/LTNG TEMPO
                 UNAVBL SLP225 =
2017-11-22 09:39 METAR CWSA 220939Z AUTO 19010KT 3SM BR FEW038 10/08 A3019 RMK TS/LTNG TEMPO
                 UNAVBL SLP226 =
2017-11-22 09:00 METAR CWSA 220900Z AUTO 19009KT 2 1/2SM BR FEW045 10/08 A3020 RMK TS/LTNG TEMPO
                 UNAVBL SLP227 =
2017-11-22 08:31 METAR CWSA 220831Z AUTO 19009KT 2 1/2SM BR CLR 10/08 A3020 RMK TS/LTNG TEMPO
                 UNAVBL SLP228 =
2017-11-22 08:00 METAR CWSA 220800Z AUTO 20011KT 3SM BR FEW046 10/09 A3021 RMK TS/LTNG TEMPO
                 UNAVBL SLP230 =
2017-11-22 07:00 METAR CWSA 220700Z AUTO 21013KT 4SM BR FEW042 10/08 A3021 RMK TS/LTNG TEMPO
                 UNAVBL SLP231 =
2017-11-22 06:00 METAR CWSA 220600Z AUTO 21013KT 4SM BR CLR 09/08 A3021 RMK TS/LTNG TEMPO UNAVBL
                 SLP231 =
2017-11-22 05:00 METAR CWSA 220500Z AUTO 22014KT 3SM BR CLR 09/08 A3019 RMK TS/LTNG TEMPO UNAVBL
                 SLP226 =
2017-11-22 04:00 METAR CWSA 220400Z AUTO 22014KT 4SM BR CLR 09/08 A3021 RMK TS/LTNG TEMPO UNAVBL
                 SLP231 =
2017-11-22 03:00 METAR CWSA 220300Z AUTO 21013KT 4SM BR CLR 08/07 A3021 RMK TS/LTNG TEMPO UNAVBL
                 SLP230 =
2017-11-22 02:00 METAR CWSA 220200Z AUTO 23014KT 4SM BR CLR 08/06 A3022 RMK TS/LTNG TEMPO UNAVBL
                 SLP234 =
2017-11-22 01:00 METAR CWSA 220100Z AUTO 25010G15KT 4SM BR CLR 07/05 A3023 RMK TS/LTNG TEMPO
                 UNAVBL SLP237 =
2017-11-22 00:54 METAR CWSA 220054Z AUTO 26010G15KT 5SM BR CLR 07/05 A3022 RMK TS/LTNG TEMPO
                 UNAVBL SLP236 =
2017-11-22 00:32 METAR CWSA 220032Z AUTO 25012KT 6SM HZ CLR 07/04 A3022 RMK TS/LTNG TEMPO UNAVBL
                 SLP235 =
2017-11-22 00:23 METAR CWSA 220023Z AUTO 26010KT 5SM HZ CLR 07/04 A3022 RMK TS/LTNG TEMPO UNAVBL
                 SLP235 =
2017-11-22 00:00 METAR CWSA 220000Z AUTO 26008KT 7SM FEW025 SCT030 07/04 A3023 RMK TS/LTNG TEMPO
                 UNAVBL SLP237 =
2017-11-21 23:00 METAR CWSA 212300Z AUTO 27013G19KT 9SM CLR 06/02 A3022 RMK TS/LTNG TEMPO UNAVBL
                 SLP236 =
2017-11-21 22:00 METAR CWSA 212200Z AUTO 28015G23KT 9SM CLR 06/01 A3021 RMK TS/LTNG TEMPO UNAVBL
                 SLP231 =
2017-11-21 21:00 METAR CWSA 212100Z AUTO 26015G24KT 9SM CLR 05/00 A3019 RMK TS/LTNG TEMPO UNAVBL
                 SLP223 =
2017-11-21 20:00 METAR CWSA 212000Z AUTO 26016G24KT 9SM FEW027 05/M00 A3017 RMK TS/LTNG TEMPO
                 UNAVBL SLP218 =
2017-11-21 19:00 METAR CWSA 211900Z AUTO 26014G23KT 9SM FEW029 05/M01 A3015 RMK TS/LTNG TEMPO
                 UNAVBL SLP211 =
2017-11-21 18:00 METAR CWSA 211800Z AUTO 27014G20KT 9SM BKN029 05/M01 A3013 RMK TS/LTNG TEMPO
                 UNAVBL SLP205 =
2017-11-21 17:00 METAR CWSA 211700Z AUTO 27012G24KT 9SM BKN037 05/M02 A3013 RMK TS/LTNG TEMPO
                 UNAVBL SLP203 =

Support USWX by starting your Amazon purchase here.